sensor_id;sensor_type;location;lat;lon;timestamp;pressure;altitude;pressure_sealevel;temperature;humidity
32761;BME280;19126;47.472;7.850;2023-06-04T00:02:25;96485.16;;;14.02;100.00
32761;BME280;19126;47.472;7.850;2023-06-04T00:04:52;96480.47;;;13.98;100.00
32761;BME280;19126;47.472;7.850;2023-06-04T00:07:20;96482.06;;;13.92;100.00
32761;BME280;19126;47.472;7.850;2023-06-04T00:09:47;96476.56;;;13.87;100.00
32761;BME280;19126;47.472;7.850;2023-06-04T00:12:16;96475.97;;;13.85;100.00
32761;BME280;19126;47.472;7.850;2023-06-04T00:14:43;96475.13;;;13.77;100.00
32761;BME280;19126;47.472;7.850;2023-06-04T00:17:11;96478.16;;;13.74;100.00
32761;BME280;19126;47.472;7.850;2023-06-04T00:19:39;96475.69;;;13.66;100.00
32761;BME280;19126;47.472;7.850;2023-06-04T00:22:07;96475.06;;;13.57;100.00
32761;BME280;19126;47.472;7.850;2023-06-04T00:24:36;96472.00;;;13.54;100.00
32761;BME280;19126;47.472;7.850;2023-06-04T00:27:05;96478.25;;;13.46;100.00
32761;BME280;19126;47.472;7.850;2023-06-04T00:29:34;96474.53;;;13.33;100.00
32761;BME280;19126;47.472;7.850;2023-06-04T00:32:01;96473.84;;;13.25;100.00
32761;BME280;19126;47.472;7.850;2023-06-04T00:34:29;96468.88;;;13.08;100.00
32761;BME280;19126;47.472;7.850;2023-06-04T00:36:56;96469.66;;;13.02;100.00
32761;BME280;19126;47.472;7.850;2023-06-04T00:39:23;96465.97;;;12.96;100.00
32761;BME280;19126;47.472;7.850;2023-06-04T00:41:51;96461.69;;;12.95;100.00
32761;BME280;19126;47.472;7.850;2023-06-04T00:44:18;96466.97;;;12.95;100.00
32761;BME280;19126;47.472;7.850;2023-06-04T00:46:52;96475.88;;;12.94;100.00
32761;BME280;19126;47.472;7.850;2023-06-04T00:51:56;96475.72;;;12.96;100.00
32761;BME280;19126;47.472;7.850;2023-06-04T00:54:24;96469.00;;;12.93;100.00
32761;BME280;19126;47.472;7.850;2023-06-04T00:56:52;96470.19;;;12.90;100.00
32761;BME280;19126;47.472;7.850;2023-06-04T00:59:19;96471.81;;;12.92;100.00
32761;BME280;19126;47.472;7.850;2023-06-04T01:04:30;96477.50;;;12.88;100.00
32761;BME280;19126;47.472;7.850;2023-06-04T01:07:04;96474.03;;;12.88;100.00
32761;BME280;19126;47.472;7.850;2023-06-04T01:09:31;96475.03;;;12.87;100.00
32761;BME280;19126;47.472;7.850;2023-06-04T01:11:59;96480.31;;;12.87;100.00
32761;BME280;19126;47.472;7.850;2023-06-04T01:14:27;96481.31;;;12.86;100.00
32761;BME280;19126;47.472;7.850;2023-06-04T01:16:59;96479.06;;;12.83;100.00
32761;BME280;19126;47.472;7.850;2023-06-04T01:23:05;96478.97;;;12.69;100.00
32761;BME280;19126;47.472;7.850;2023-06-04T01:25:41;96484.59;;;12.66;100.00
32761;BME280;19126;47.472;7.850;2023-06-04T01:28:12;96485.19;;;12.62;99.44
32761;BME280;19126;47.472;7.850;2023-06-04T01:30:44;96485.38;;;12.60;99.12
32761;BME280;19126;47.472;7.850;2023-06-04T01:33:13;96482.88;;;12.52;98.62
32761;BME280;19126;47.472;7.850;2023-06-04T01:35:42;96485.25;;;12.46;97.95
32761;BME280;19126;47.472;7.850;2023-06-04T01:38:10;96479.75;;;12.41;96.80
32761;BME280;19126;47.472;7.850;2023-06-04T01:40:38;96483.63;;;12.45;96.67
32761;BME280;19126;47.472;7.850;2023-06-04T01:43:05;96478.94;;;12.41;96.98
32761;BME280;19126;47.472;7.850;2023-06-04T01:45:33;96476.47;;;12.39;96.91
32761;BME280;19126;47.472;7.850;2023-06-04T01:48:02;96482.13;;;12.36;97.55
32761;BME280;19126;47.472;7.850;2023-06-04T01:50:29;96488.97;;;12.30;96.64
32761;BME280;19126;47.472;7.850;2023-06-04T01:52:58;96486.28;;;12.24;95.88
32761;BME280;19126;47.472;7.850;2023-06-04T01:55:26;96484.00;;;12.21;94.37
32761;BME280;19126;47.472;7.850;2023-06-04T01:57:55;96483.75;;;12.15;94.25
32761;BME280;19126;47.472;7.850;2023-06-04T02:00:23;96494.13;;;12.17;94.66
32761;BME280;19126;47.472;7.850;2023-06-04T02:02:50;96488.22;;;12.15;95.28
32761;BME280;19126;47.472;7.850;2023-06-04T02:05:19;96495.28;;;12.14;96.17
32761;BME280;19126;47.472;7.850;2023-06-04T02:07:46;96498.13;;;12.13;96.89
32761;BME280;19126;47.472;7.850;2023-06-04T02:10:16;96493.03;;;12.11;96.96
32761;BME280;19126;47.472;7.850;2023-06-04T02:12:55;96495.03;;;12.09;97.16
32761;BME280;19126;47.472;7.850;2023-06-04T02:15:23;96497.88;;;12.08;97.39
32761;BME280;19126;47.472;7.850;2023-06-04T02:17:55;96495.41;;;12.06;97.53
32761;BME280;19126;47.472;7.850;2023-06-04T02:20:24;96494.00;;;12.04;96.92
32761;BME280;19126;47.472;7.850;2023-06-04T02:22:51;96493.34;;;12.01;97.16
32761;BME280;19126;47.472;7.850;2023-06-04T02:25:20;96502.59;;;11.97;97.18
32761;BME280;19126;47.472;7.850;2023-06-04T02:27:47;96493.63;;;11.92;96.25
32761;BME280;19126;47.472;7.850;2023-06-04T02:30:15;96501.06;;;11.88;96.53
32761;BME280;19126;47.472;7.850;2023-06-04T02:32:43;96495.53;;;11.83;95.94
32761;BME280;19126;47.472;7.850;2023-06-04T02:35:10;96499.63;;;11.85;94.77
32761;BME280;19126;47.472;7.850;2023-06-04T02:37:37;96498.78;;;11.85;94.60
32761;BME280;19126;47.472;7.850;2023-06-04T02:40:06;96497.34;;;11.82;93.98
32761;BME280;19126;47.472;7.850;2023-06-04T02:42:35;96495.72;;;11.81;94.79
32761;BME280;19126;47.472;7.850;2023-06-04T02:45:04;96494.47;;;11.77;94.61
32761;BME280;19126;47.472;7.850;2023-06-04T02:47:31;96505.34;;;11.74;94.19
32761;BME280;19126;47.472;7.850;2023-06-04T02:49:58;96505.91;;;11.69;94.95
32761;BME280;19126;47.472;7.850;2023-06-04T02:52:26;96501.19;;;11.65;94.47
32761;BME280;19126;47.472;7.850;2023-06-04T02:54:53;96511.53;;;11.66;93.19
32761;BME280;19126;47.472;7.850;2023-06-04T02:57:21;96500.38;;;11.64;92.39
32761;BME280;19126;47.472;7.850;2023-06-04T02:59:49;96496.09;;;11.63;92.85
32761;BME280;19126;47.472;7.850;2023-06-04T03:02:17;96506.84;;;11.62;93.26
32761;BME280;19126;47.472;7.850;2023-06-04T03:04:45;96505.19;;;11.61;92.42
32761;BME280;19126;47.472;7.850;2023-06-04T03:07:16;96508.19;;;11.57;92.38
32761;BME280;19126;47.472;7.850;2023-06-04T03:09:46;96501.66;;;11.53;92.73
32761;BME280;19126;47.472;7.850;2023-06-04T03:12:14;96510.72;;;11.51;93.02
32761;BME280;19126;47.472;7.850;2023-06-04T03:14:41;96513.91;;;11.46;92.96
32761;BME280;19126;47.472;7.850;2023-06-04T03:17:11;96509.03;;;11.43;92.77
32761;BME280;19126;47.472;7.850;2023-06-04T03:19:40;96518.91;;;11.41;91.85
32761;BME280;19126;47.472;7.850;2023-06-04T03:22:08;96522.53;;;11.40;91.56
32761;BME280;19126;47.472;7.850;2023-06-04T03:24:39;96528.78;;;11.39;91.80
32761;BME280;19126;47.472;7.850;2023-06-04T03:27:08;96518.44;;;11.37;91.60
32761;BME280;19126;47.472;7.850;2023-06-04T03:29:36;96525.91;;;11.34;90.82
32761;BME280;19126;47.472;7.850;2023-06-04T03:32:05;96517.38;;;11.32;90.73
32761;BME280;19126;47.472;7.850;2023-06-04T03:34:34;96527.06;;;11.31;90.32
32761;BME280;19126;47.472;7.850;2023-06-04T03:37:02;96527.41;;;11.28;90.09
32761;BME280;19126;47.472;7.850;2023-06-04T03:39:29;96522.72;;;11.23;89.64
32761;BME280;19126;47.472;7.850;2023-06-04T03:41:56;96531.88;;;11.27;88.93
32761;BME280;19126;47.472;7.850;2023-06-04T03:44:25;96533.88;;;11.25;89.17
32761;BME280;19126;47.472;7.850;2023-06-04T03:46:53;96535.66;;;11.25;88.72
32761;BME280;19126;47.472;7.850;2023-06-04T03:49:20;96541.94;;;11.24;88.06
32761;BME280;19126;47.472;7.850;2023-06-04T03:51:49;96538.22;;;11.18;87.64
32761;BME280;19126;47.472;7.850;2023-06-04T03:54:16;96520.34;;;11.13;86.74
32761;BME280;19126;47.472;7.850;2023-06-04T03:56:44;96543.28;;;11.20;85.67
32761;BME280;19126;47.472;7.850;2023-06-04T04:07:11;96548.25;;;11.14;81.84
32761;BME280;19126;47.472;7.850;2023-06-04T04:09:41;96536.31;;;11.12;81.21
32761;BME280;19126;47.472;7.850;2023-06-04T04:12:09;96556.25;;;11.21;80.07
32761;BME280;19126;47.472;7.850;2023-06-04T04:14:39;96534.94;;;11.16;80.10
32761;BME280;19126;47.472;7.850;2023-06-04T04:17:09;96555.19;;;11.31;79.21
32761;BME280;19126;47.472;7.850;2023-06-04T04:19:37;96556.09;;;11.38;79.40
32761;BME280;19126;47.472;7.850;2023-06-04T04:22:04;96562.25;;;11.45;79.63
32761;BME280;19126;47.472;7.850;2023-06-04T04:24:33;96556.00;;;11.46;80.34
32761;BME280;19126;47.472;7.850;2023-06-04T04:27:01;96552.00;;;11.50;80.53
32761;BME280;19126;47.472;7.850;2023-06-04T04:32:13;96551.09;;;11.58;80.33
32761;BME280;19126;47.472;7.850;2023-06-04T04:37:18;96558.34;;;11.71;80.03
32761;BME280;19126;47.472;7.850;2023-06-04T06:56:09;96624.75;;;22.19;66.54
32761;BME280;19126;47.472;7.850;2023-06-04T06:58:37;96629.22;;;22.13;64.29
32761;BME280;19126;47.472;7.850;2023-06-04T07:01:04;96621.53;;;22.17;64.21
32761;BME280;19126;47.472;7.850;2023-06-04T07:03:31;96618.16;;;22.04;63.92
32761;BME280;19126;47.472;7.850;2023-06-04T07:05:59;96619.16;;;21.98;67.75
32761;BME280;19126;47.472;7.850;2023-06-04T07:08:26;96622.34;;;21.78;68.47
32761;BME280;19126;47.472;7.850;2023-06-04T07:10:54;96621.22;;;21.57;66.97
32761;BME280;19126;47.472;7.850;2023-06-04T07:13:23;96620.09;;;21.70;64.24
32761;BME280;19126;47.472;7.850;2023-06-04T07:15:50;96624.59;;;21.86;67.76
32761;BME280;19126;47.472;7.850;2023-06-04T07:18:17;96622.13;;;21.79;62.67
32761;BME280;19126;47.472;7.850;2023-06-04T07:20:45;96623.63;;;22.15;67.34
32761;BME280;19126;47.472;7.850;2023-06-04T07:23:12;96617.53;;;22.42;64.57
32761;BME280;19126;47.472;7.850;2023-06-04T07:25:39;96615.19;;;22.45;61.87
32761;BME280;19126;47.472;7.850;2023-06-04T07:28:07;96612.53;;;22.73;64.01
32761;BME280;19126;47.472;7.850;2023-06-04T07:30:35;96616.94;;;22.84;62.11
32761;BME280;19126;47.472;7.850;2023-06-04T07:33:03;96625.38;;;22.98;59.57
32761;BME280;19126;47.472;7.850;2023-06-04T07:35:30;96620.38;;;23.12;61.63
32761;BME280;19126;47.472;7.850;2023-06-04T07:37:57;96627.88;;;23.10;59.84
32761;BME280;19126;47.472;7.850;2023-06-04T07:40:25;96621.91;;;23.30;59.56
32761;BME280;19126;47.472;7.850;2023-06-04T07:42:52;96613.66;;;23.37;59.11
32761;BME280;19126;47.472;7.850;2023-06-04T07:45:19;96611.91;;;23.53;60.04
32761;BME280;19126;47.472;7.850;2023-06-04T07:47:49;96612.22;;;23.67;59.70
32761;BME280;19126;47.472;7.850;2023-06-04T07:50:16;96606.69;;;23.79;55.92
32761;BME280;19126;47.472;7.850;2023-06-04T07:52:44;96611.06;;;23.95;57.26
32761;BME280;19126;47.472;7.850;2023-06-04T07:55:11;96613.88;;;24.16;58.93
32761;BME280;19126;47.472;7.850;2023-06-04T07:57:38;96608.59;;;24.42;56.57
32761;BME280;19126;47.472;7.850;2023-06-04T08:00:07;96616.91;;;24.35;54.96
32761;BME280;19126;47.472;7.850;2023-06-04T08:02:35;96619.31;;;24.37;55.90
32761;BME280;19126;47.472;7.850;2023-06-04T08:05:04;96616.75;;;24.78;56.79
32761;BME280;19126;47.472;7.850;2023-06-04T08:07:31;96615.16;;;24.93;54.63
32761;BME280;19126;47.472;7.850;2023-06-04T08:09:58;96608.66;;;24.68;54.23
32761;BME280;19126;47.472;7.850;2023-06-04T08:12:26;96614.56;;;24.70;54.38
32761;BME280;19126;47.472;7.850;2023-06-04T08:14:53;96623.38;;;24.44;54.65
32761;BME280;19126;47.472;7.850;2023-06-04T08:17:22;96615.81;;;24.26;55.53
32761;BME280;19126;47.472;7.850;2023-06-04T08:19:50;96616.66;;;24.47;56.01
32761;BME280;19126;47.472;7.850;2023-06-04T08:22:18;96612.38;;;24.56;57.42
32761;BME280;19126;47.472;7.850;2023-06-04T08:24:45;96606.03;;;24.78;53.79
32761;BME280;19126;47.472;7.850;2023-06-04T08:27:13;96607.66;;;25.00;55.11
32761;BME280;19126;47.472;7.850;2023-06-04T08:29:40;96607.41;;;24.96;53.80
32761;BME280;19126;47.472;7.850;2023-06-04T08:32:07;96607.66;;;25.15;55.43
32761;BME280;19126;47.472;7.850;2023-06-04T08:34:35;96605.25;;;25.19;52.21
32761;BME280;19126;47.472;7.850;2023-06-04T08:37:02;96605.25;;;25.09;53.23
32761;BME280;19126;47.472;7.850;2023-06-04T08:39:31;96599.34;;;25.53;55.81
32761;BME280;19126;47.472;7.850;2023-06-04T08:42:04;96611.06;;;25.99;53.18
32761;BME280;19126;47.472;7.850;2023-06-04T08:44:33;96605.13;;;26.07;50.39
32761;BME280;19126;47.472;7.850;2023-06-04T08:47:04;96607.81;;;26.07;49.85
32761;BME280;19126;47.472;7.850;2023-06-04T08:49:34;96606.16;;;26.22;49.74
32761;BME280;19126;47.472;7.850;2023-06-04T08:52:03;96612.13;;;26.69;50.26
32761;BME280;19126;47.472;7.850;2023-06-04T08:54:33;96612.66;;;27.16;49.87
32761;BME280;19126;47.472;7.850;2023-06-04T08:57:01;96608.56;;;27.18;49.29
32761;BME280;19126;47.472;7.850;2023-06-04T08:59:29;96609.75;;;27.07;47.27
32761;BME280;19126;47.472;7.850;2023-06-04T09:01:57;96610.44;;;26.83;46.86
32761;BME280;19126;47.472;7.850;2023-06-04T09:04:25;96618.50;;;26.88;48.42
32761;BME280;19126;47.472;7.850;2023-06-04T09:06:54;96608.00;;;27.21;47.43
32761;BME280;19126;47.472;7.850;2023-06-04T09:09:22;96608.19;;;27.35;48.31
32761;BME280;19126;47.472;7.850;2023-06-04T09:11:55;96606.00;;;27.38;48.47
32761;BME280;19126;47.472;7.850;2023-06-04T09:14:23;96610.31;;;27.04;48.34
32761;BME280;19126;47.472;7.850;2023-06-04T09:16:52;96607.50;;;26.85;48.15
32761;BME280;19126;47.472;7.850;2023-06-04T09:19:21;96612.88;;;26.85;49.97
32761;BME280;19126;47.472;7.850;2023-06-04T09:21:50;96608.28;;;27.25;51.30
32761;BME280;19126;47.472;7.850;2023-06-04T09:24:18;96605.34;;;27.16;48.68
32761;BME280;19126;47.472;7.850;2023-06-04T09:26:45;96614.97;;;27.28;49.63
32761;BME280;19126;47.472;7.850;2023-06-04T09:29:14;96608.97;;;27.36;48.62
32761;BME280;19126;47.472;7.850;2023-06-04T09:31:44;96606.53;;;27.40;48.68
32761;BME280;19126;47.472;7.850;2023-06-04T09:34:13;96599.84;;;27.32;50.41
32761;BME280;19126;47.472;7.850;2023-06-04T09:36:41;96606.97;;;27.17;48.13
32761;BME280;19126;47.472;7.850;2023-06-04T09:39:17;96600.81;;;27.12;51.17
32761;BME280;19126;47.472;7.850;2023-06-04T09:41:45;96610.41;;;27.28;48.96
32761;BME280;19126;47.472;7.850;2023-06-04T09:44:25;96609.88;;;27.26;49.16
32761;BME280;19126;47.472;7.850;2023-06-04T09:46:55;96602.53;;;27.32;48.32
32761;BME280;19126;47.472;7.850;2023-06-04T09:49:23;96601.00;;;27.55;49.82
32761;BME280;19126;47.472;7.850;2023-06-04T09:51:51;96597.22;;;27.56;48.60
32761;BME280;19126;47.472;7.850;2023-06-04T09:54:18;96604.38;;;27.96;48.50
32761;BME280;19126;47.472;7.850;2023-06-04T09:56:45;96603.47;;;28.05;47.74
32761;BME280;19126;47.472;7.850;2023-06-04T09:59:13;96605.44;;;28.24;47.13
32761;BME280;19126;47.472;7.850;2023-06-04T10:17:43;96596.84;;;28.60;45.07
32761;BME280;19126;47.472;7.850;2023-06-04T10:20:11;96592.16;;;28.47;46.71
32761;BME280;19126;47.472;7.850;2023-06-04T10:22:38;96587.69;;;28.75;47.29
32761;BME280;19126;47.472;7.850;2023-06-04T10:25:08;96584.75;;;28.77;47.28
32761;BME280;19126;47.472;7.850;2023-06-04T10:27:36;96589.97;;;28.49;47.29
32761;BME280;19126;47.472;7.850;2023-06-04T10:30:05;96586.47;;;28.87;47.38
32761;BME280;19126;47.472;7.850;2023-06-04T10:32:34;96589.75;;;28.84;43.82
32761;BME280;19126;47.472;7.850;2023-06-04T10:35:06;96585.06;;;29.08;42.93
32761;BME280;19126;47.472;7.850;2023-06-04T10:37:34;96590.72;;;28.93;42.80
32761;BME280;19126;47.472;7.850;2023-06-04T10:40:01;96595.69;;;28.86;41.98
32761;BME280;19126;47.472;7.850;2023-06-04T10:42:40;96584.16;;;28.80;42.62
32761;BME280;19126;47.472;7.850;2023-06-04T10:45:12;96586.09;;;28.74;44.02
32761;BME280;19126;47.472;7.850;2023-06-04T10:47:40;96595.31;;;28.54;41.36
32761;BME280;19126;47.472;7.850;2023-06-04T10:52:50;96586.59;;;28.76;42.82
32761;BME280;19126;47.472;7.850;2023-06-04T10:55:18;96594.84;;;28.66;43.44
32761;BME280;19126;47.472;7.850;2023-06-04T10:57:52;96587.13;;;28.98;43.77
32761;BME280;19126;47.472;7.850;2023-06-04T11:00:20;96589.75;;;29.03;42.12
32761;BME280;19126;47.472;7.850;2023-06-04T11:02:52;96588.31;;;28.91;41.15
32761;BME280;19126;47.472;7.850;2023-06-04T11:05:21;96585.38;;;28.88;42.93
32761;BME280;19126;47.472;7.850;2023-06-04T11:07:50;96589.91;;;28.92;42.91
32761;BME280;19126;47.472;7.850;2023-06-04T11:10:17;96583.53;;;29.02;42.58
32761;BME280;19126;47.472;7.850;2023-06-04T11:12:48;96583.69;;;29.11;41.76
32761;BME280;19126;47.472;7.850;2023-06-04T11:15:16;96588.41;;;29.19;39.24
32761;BME280;19126;47.472;7.850;2023-06-04T11:17:51;96583.09;;;29.14;38.05
32761;BME280;19126;47.472;7.850;2023-06-04T11:20:21;96587.72;;;29.47;41.09
32761;BME280;19126;47.472;7.850;2023-06-04T11:22:55;96583.00;;;29.38;39.21
32761;BME280;19126;47.472;7.850;2023-06-04T11:25:24;96580.13;;;29.30;38.00
32761;BME280;19126;47.472;7.850;2023-06-04T11:27:53;96579.19;;;29.53;37.60
32761;BME280;19126;47.472;7.850;2023-06-04T11:30:21;96581.00;;;29.58;38.32
32761;BME280;19126;47.472;7.850;2023-06-04T11:32:49;96573.72;;;29.06;35.29
32761;BME280;19126;47.472;7.850;2023-06-04T11:35:16;96579.03;;;28.98;37.05
32761;BME280;19126;47.472;7.850;2023-06-04T11:37:55;96569.97;;;28.50;35.05
32761;BME280;19126;47.472;7.850;2023-06-04T11:40:23;96567.16;;;27.92;37.10
32761;BME280;19126;47.472;7.850;2023-06-04T11:42:53;96570.97;;;28.16;37.81
32761;BME280;19126;47.472;7.850;2023-06-04T11:47:57;96556.56;;;28.20;35.04
32761;BME280;19126;47.472;7.850;2023-06-04T11:50:28;96577.91;;;28.41;37.34
32761;BME280;19126;47.472;7.850;2023-06-04T11:52:59;96563.31;;;28.23;36.94
32761;BME280;19126;47.472;7.850;2023-06-04T11:55:29;96570.38;;;28.38;38.67
32761;BME280;19126;47.472;7.850;2023-06-04T11:57:57;96582.16;;;28.47;36.53
32761;BME280;19126;47.472;7.850;2023-06-04T12:00:24;96564.34;;;28.85;37.28
32761;BME280;19126;47.472;7.850;2023-06-04T12:02:54;96566.22;;;29.03;37.00
32761;BME280;19126;47.472;7.850;2023-06-04T12:05:23;96568.97;;;29.17;35.51
32761;BME280;19126;47.472;7.850;2023-06-04T12:08:05;96569.88;;;29.27;36.53
32761;BME280;19126;47.472;7.850;2023-06-04T12:10:38;96550.72;;;29.70;38.83
32761;BME280;19126;47.472;7.850;2023-06-04T12:13:13;96557.78;;;29.85;35.33
32761;BME280;19126;47.472;7.850;2023-06-04T12:15:41;96554.34;;;29.79;36.03
32761;BME280;19126;47.472;7.850;2023-06-04T12:18:08;96554.47;;;29.88;36.85
32761;BME280;19126;47.472;7.850;2023-06-04T12:20:38;96552.25;;;29.90;36.99
32761;BME280;19126;47.472;7.850;2023-06-04T12:28:22;96554.47;;;29.88;36.25
32761;BME280;19126;47.472;7.850;2023-06-04T12:30:50;96555.06;;;29.85;37.22
32761;BME280;19126;47.472;7.850;2023-06-04T12:35:53;96553.84;;;29.91;36.31
32761;BME280;19126;47.472;7.850;2023-06-04T12:38:23;96560.34;;;29.76;36.30
32761;BME280;19126;47.472;7.850;2023-06-04T12:40:52;96555.16;;;29.80;36.38
32761;BME280;19126;47.472;7.850;2023-06-04T12:43:19;96548.03;;;29.70;37.79
32761;BME280;19126;47.472;7.850;2023-06-04T12:53:35;96551.22;;;29.44;37.97
32761;BME280;19126;47.472;7.850;2023-06-04T12:56:02;96538.09;;;29.51;37.23
32761;BME280;19126;47.472;7.850;2023-06-04T12:58:30;96538.84;;;29.38;38.67
32761;BME280;19126;47.472;7.850;2023-06-04T13:00:59;96531.31;;;29.35;37.80
32761;BME280;19126;47.472;7.850;2023-06-04T13:03:27;96541.53;;;29.57;35.80
32761;BME280;19126;47.472;7.850;2023-06-04T13:05:55;96531.91;;;29.51;37.68
32761;BME280;19126;47.472;7.850;2023-06-04T13:08:31;96515.38;;;29.19;37.80
32761;BME280;19126;47.472;7.850;2023-06-04T13:16:14;96527.38;;;29.46;37.75
32761;BME280;19126;47.472;7.850;2023-06-04T13:18:41;96522.13;;;29.36;37.17
32761;BME280;19126;47.472;7.850;2023-06-04T13:21:13;96513.91;;;29.27;39.13
32761;BME280;19126;47.472;7.850;2023-06-04T13:23:42;96518.66;;;29.63;37.64
32761;BME280;19126;47.472;7.850;2023-06-04T13:26:10;96514.53;;;29.80;38.66
32761;BME280;19126;47.472;7.850;2023-06-04T13:31:15;96499.78;;;29.72;38.97
32761;BME280;19126;47.472;7.850;2023-06-04T13:36:19;96503.59;;;29.43;38.32
32761;BME280;19126;47.472;7.850;2023-06-04T13:41:22;96503.41;;;29.81;38.27
32761;BME280;19126;47.472;7.850;2023-06-04T14:09:47;96493.38;;;29.68;35.74
32761;BME280;19126;47.472;7.850;2023-06-04T14:12:14;96493.91;;;29.56;36.92
32761;BME280;19126;47.472;7.850;2023-06-04T14:14:44;96484.97;;;29.42;36.99
32761;BME280;19126;47.472;7.850;2023-06-04T14:17:12;96480.44;;;29.23;38.63
32761;BME280;19126;47.472;7.850;2023-06-04T14:19:39;96474.75;;;29.05;37.32
32761;BME280;19126;47.472;7.850;2023-06-04T14:22:07;96474.66;;;29.10;37.22
32761;BME280;19126;47.472;7.850;2023-06-04T14:24:35;96473.47;;;29.03;36.92
32761;BME280;19126;47.472;7.850;2023-06-04T14:27:04;96464.88;;;29.15;36.71
32761;BME280;19126;47.472;7.850;2023-06-04T14:29:32;96463.22;;;28.86;37.97
32761;BME280;19126;47.472;7.850;2023-06-04T14:32:00;96462.47;;;28.28;39.50
32761;BME280;19126;47.472;7.850;2023-06-04T14:34:27;96457.81;;;28.33;39.06
32761;BME280;19126;47.472;7.850;2023-06-04T14:36:54;96460.78;;;28.32;40.93
32761;BME280;19126;47.472;7.850;2023-06-04T14:39:23;96459.28;;;28.26;38.90
32761;BME280;19126;47.472;7.850;2023-06-04T14:41:51;96451.16;;;28.06;38.37
32761;BME280;19126;47.472;7.850;2023-06-04T14:44:19;96446.34;;;28.22;37.60
32761;BME280;19126;47.472;7.850;2023-06-04T14:46:49;96435.03;;;28.20;40.66
32761;BME280;19126;47.472;7.850;2023-06-04T14:49:16;96448.03;;;28.18;38.72
32761;BME280;19126;47.472;7.850;2023-06-04T14:51:44;96445.41;;;28.13;39.44
32761;BME280;19126;47.472;7.850;2023-06-04T14:54:13;96447.84;;;28.15;39.44
32761;BME280;19126;47.472;7.850;2023-06-04T14:56:41;96445.19;;;28.29;38.62
32761;BME280;19126;47.472;7.850;2023-06-04T14:59:09;96435.94;;;28.16;37.20
32761;BME280;19126;47.472;7.850;2023-06-04T15:04:12;96435.75;;;27.88;42.37
32761;BME280;19126;47.472;7.850;2023-06-04T15:06:40;96439.13;;;27.55;41.62
32761;BME280;19126;47.472;7.850;2023-06-04T15:09:07;96441.34;;;27.48;39.30
32761;BME280;19126;47.472;7.850;2023-06-04T15:11:34;96448.75;;;27.37;37.82
32761;BME280;19126;47.472;7.850;2023-06-04T15:14:02;96437.22;;;27.31;37.89
32761;BME280;19126;47.472;7.850;2023-06-04T15:16:29;96445.31;;;27.31;39.01
32761;BME280;19126;47.472;7.850;2023-06-04T15:18:56;96446.81;;;27.43;40.39
32761;BME280;19126;47.472;7.850;2023-06-04T15:21:25;96448.31;;;27.54;41.89
32761;BME280;19126;47.472;7.850;2023-06-04T15:23:52;96446.75;;;27.48;42.02
32761;BME280;19126;47.472;7.850;2023-06-04T15:26:20;96443.97;;;27.29;41.45
32761;BME280;19126;47.472;7.850;2023-06-04T15:28:47;96445.28;;;27.07;42.61
32761;BME280;19126;47.472;7.850;2023-06-04T15:31:14;96446.78;;;26.94;42.46
32761;BME280;19126;47.472;7.850;2023-06-04T15:33:41;96448.03;;;26.72;43.78
32761;BME280;19126;47.472;7.850;2023-06-04T15:36:09;96449.78;;;26.58;43.16
32761;BME280;19126;47.472;7.850;2023-06-04T15:38:37;96466.94;;;26.27;42.72
32761;BME280;19126;47.472;7.850;2023-06-04T15:41:05;96467.50;;;26.24;43.71
32761;BME280;19126;47.472;7.850;2023-06-04T15:43:32;96472.84;;;25.74;47.64
32761;BME280;19126;47.472;7.850;2023-06-04T15:45:59;96464.94;;;25.22;50.14
32761;BME280;19126;47.472;7.850;2023-06-04T15:48:26;96457.97;;;25.00;50.46
32761;BME280;19126;47.472;7.850;2023-06-04T15:50:55;96463.63;;;24.83;51.33
32761;BME280;19126;47.472;7.850;2023-06-04T15:53:22;96466.03;;;24.54;50.60
32761;BME280;19126;47.472;7.850;2023-06-04T15:55:51;96461.72;;;24.22;51.51
32761;BME280;19126;47.472;7.850;2023-06-04T15:58:18;96469.72;;;24.01;53.08
32761;BME280;19126;47.472;7.850;2023-06-04T16:00:45;96472.19;;;23.54;53.44
32761;BME280;19126;47.472;7.850;2023-06-04T16:03:13;96464.41;;;23.05;54.22
32761;BME280;19126;47.472;7.850;2023-06-04T16:05:40;96457.56;;;22.81;56.10
32761;BME280;19126;47.472;7.850;2023-06-04T16:08:07;96462.84;;;22.71;56.22
32761;BME280;19126;47.472;7.850;2023-06-04T16:10:34;96471.06;;;22.37;58.08
32761;BME280;19126;47.472;7.850;2023-06-04T16:13:03;96473.06;;;22.19;57.78
32761;BME280;19126;47.472;7.850;2023-06-04T16:15:30;96481.44;;;22.01;60.44
32761;BME280;19126;47.472;7.850;2023-06-04T16:17:57;96476.69;;;21.80;62.23
32761;BME280;19126;47.472;7.850;2023-06-04T16:20:25;96474.13;;;21.69;63.14
32761;BME280;19126;47.472;7.850;2023-06-04T16:22:52;96482.53;;;21.60;63.41
32761;BME280;19126;47.472;7.850;2023-06-04T16:25:19;96480.09;;;21.36;64.22
32761;BME280;19126;47.472;7.850;2023-06-04T16:27:47;96475.31;;;21.38;65.40
32761;BME280;19126;47.472;7.850;2023-06-04T16:30:16;96478.13;;;21.27;65.87
32761;BME280;19126;47.472;7.850;2023-06-04T16:32:43;96488.06;;;21.14;66.44
32761;BME280;19126;47.472;7.850;2023-06-04T16:35:10;96486.38;;;21.08;67.23
32761;BME280;19126;47.472;7.850;2023-06-04T16:37:38;96483.25;;;20.94;69.62
32761;BME280;19126;47.472;7.850;2023-06-04T16:40:06;96481.88;;;20.91;68.19
32761;BME280;19126;47.472;7.850;2023-06-04T16:42:34;96477.31;;;20.75;69.18
32761;BME280;19126;47.472;7.850;2023-06-04T16:45:03;96488.34;;;20.78;69.70
32761;BME280;19126;47.472;7.850;2023-06-04T16:47:33;96498.09;;;20.73;69.42
32761;BME280;19126;47.472;7.850;2023-06-04T16:50:00;96488.41;;;20.67;67.80
32761;BME280;19126;47.472;7.850;2023-06-04T16:52:28;96495.25;;;20.62;66.17
32761;BME280;19126;47.472;7.850;2023-06-04T16:54:56;96494.13;;;20.58;67.05
32761;BME280;19126;47.472;7.850;2023-06-04T16:57:25;96490.72;;;20.46;65.99
32761;BME280;19126;47.472;7.850;2023-06-04T16:59:52;96504.81;;;20.41;66.84
32761;BME280;19126;47.472;7.850;2023-06-04T17:02:20;96501.41;;;20.46;66.67
32761;BME280;19126;47.472;7.850;2023-06-04T17:04:48;96502.44;;;20.45;67.55